createdAt,value
2022-10-29T00:00:20.015Z,26.15
2022-10-29T00:02:21.599Z,30.60
2022-10-29T00:04:23.101Z,26.30
2022-10-29T00:06:24.908Z,28.30
2022-10-29T00:08:27.275Z,27.42
2022-10-29T00:10:29.765Z,29.50
2022-10-29T00:12:31.315Z,26.67
2022-10-29T00:14:32.903Z,26.85
2022-10-29T00:16:37.678Z,22.67
2022-10-29T00:18:39.594Z,22.63
2022-10-29T00:20:41.038Z,22.88
2022-10-29T00:22:42.504Z,29.23
2022-10-29T00:24:44.040Z,25.38
2022-10-29T00:26:45.800Z,25.13
2022-10-29T00:28:47.884Z,25.15
2022-10-29T00:30:49.442Z,20.63
2022-10-29T00:32:50.940Z,22.40
2022-10-29T00:34:52.395Z,25.45
2022-10-29T00:36:53.906Z,24.00
2022-10-29T00:38:57.116Z,22.85
2022-10-29T00:40:59.278Z,24.70
2022-10-29T00:43:14.767Z,22.55
2022-10-29T00:45:21.318Z,22.55
2022-10-29T00:47:25.525Z,22.95
2022-10-29T00:49:27.555Z,23.58
2022-10-29T00:51:31.045Z,20.58
2022-10-29T00:53:36.734Z,19.90
2022-10-29T00:55:38.212Z,22.33
2022-10-29T00:57:43.966Z,22.38
2022-10-29T01:01:55.947Z,23.77
2022-10-29T01:04:00.195Z,25.92
2022-10-29T01:06:03.253Z,25.63
2022-10-29T01:08:05.647Z,22.38
2022-10-29T01:10:07.744Z,25.33
2022-10-29T01:12:26.298Z,24.40
2022-10-29T01:15:09.879Z,23.52
2022-10-29T01:17:23.295Z,21.05
2022-10-29T01:19:54.507Z,29.80
2022-10-29T01:22:08.237Z,21.00
2022-10-29T01:24:51.275Z,22.85
2022-10-29T01:27:26.648Z,24.25
2022-10-29T01:29:43.129Z,29.92
2022-10-29T01:31:49.726Z,26.08
2022-10-29T01:34:12.194Z,30.35
2022-10-29T01:36:29.219Z,21.02
2022-10-29T01:38:47.911Z,24.75
2022-10-29T01:41:03.477Z,19.30
2022-10-29T01:43:11.808Z,20.58
2022-10-29T01:45:19.304Z,22.63
2022-10-29T01:47:23.548Z,22.08
2022-10-29T01:49:32.771Z,21.45
2022-10-29T01:51:36.512Z,21.02
2022-10-29T01:53:39.369Z,18.80
2022-10-29T01:55:40.908Z,28.02
2022-10-29T01:57:42.407Z,20.83
2022-10-29T01:59:55.502Z,21.20
2022-10-29T02:01:57.661Z,21.33
2022-10-29T02:04:26.403Z,20.88
2022-10-29T02:06:40.636Z,24.88
2022-10-29T02:08:48.021Z,21.13
2022-10-29T02:11:27.830Z,21.95
2022-10-29T02:15:42.399Z,23.80
2022-10-29T02:17:44.441Z,23.77
2022-10-29T02:19:46.012Z,22.75
2022-10-29T02:21:47.477Z,19.85
2022-10-29T02:23:49.031Z,24.65
2022-10-29T02:25:50.630Z,26.92
2022-10-29T02:27:52.309Z,23.30
2022-10-29T02:29:53.791Z,22.33
2022-10-29T02:31:55.259Z,21.90
2022-10-29T02:33:56.783Z,22.15
2022-10-29T02:35:58.437Z,20.30
2022-10-29T02:37:59.907Z,24.42
2022-10-29T02:40:01.701Z,22.38
2022-10-29T02:42:03.358Z,21.23
2022-10-29T02:44:04.891Z,20.50
2022-10-29T02:46:20.127Z,22.23
2022-10-29T02:48:21.588Z,22.48
2022-10-29T02:50:23.071Z,26.15
2022-10-29T02:52:24.670Z,26.15
2022-10-29T02:54:26.146Z,19.95
2022-10-29T02:56:27.619Z,18.80
2022-10-29T02:58:29.170Z,18.05
2022-10-29T03:00:30.599Z,22.27
2022-10-29T03:02:32.176Z,23.23
2022-10-29T03:04:33.838Z,26.60
2022-10-29T03:06:35.346Z,25.40
2022-10-29T03:08:36.791Z,20.63
2022-10-29T03:10:38.260Z,25.38
2022-10-29T03:12:39.726Z,23.45
2022-10-29T03:14:41.370Z,26.02
2022-10-29T03:16:42.971Z,21.58
2022-10-29T03:18:44.598Z,22.90
2022-10-29T03:20:47.529Z,21.25
2022-10-29T03:22:49.023Z,20.98
2022-10-29T03:24:50.472Z,21.23
2022-10-29T03:26:53.098Z,21.35
2022-10-29T03:28:55.782Z,22.08
2022-10-29T03:30:58.225Z,23.08
2022-10-29T03:32:59.772Z,20.52
2022-10-29T03:35:01.307Z,24.20
2022-10-29T03:37:02.788Z,22.88
2022-10-29T03:39:04.327Z,23.35
2022-10-29T03:41:10.387Z,22.85
2022-10-29T03:43:12.002Z,26.38
2022-10-29T03:45:14.290Z,35.55
2022-10-29T03:47:15.727Z,30.80
2022-10-29T03:49:17.174Z,32.30
2022-10-29T03:51:18.713Z,33.38
2022-10-29T03:53:20.161Z,32.13
2022-10-29T03:55:21.675Z,29.95
2022-10-29T03:57:23.848Z,23.35
2022-10-29T03:59:25.323Z,32.28
2022-10-29T04:01:26.917Z,32.38
2022-10-29T04:03:31.147Z,36.58
2022-10-29T04:05:32.612Z,38.50
2022-10-29T04:07:34.129Z,31.98
2022-10-29T04:09:35.630Z,29.75
2022-10-29T04:11:37.079Z,28.85
2022-10-29T04:13:38.546Z,27.65
2022-10-29T04:15:40.414Z,23.58
2022-10-29T04:17:41.924Z,28.35
2022-10-29T04:19:43.466Z,33.25
2022-10-29T04:28:17.577Z,22.10
2022-10-29T04:28:50.863Z,25.65
2022-10-29T04:30:53.142Z,20.48
2022-10-29T04:32:59.345Z,20.23
2022-10-29T04:35:01.175Z,21.90
2022-10-29T04:37:02.680Z,22.83
2022-10-29T04:39:04.537Z,25.08
2022-10-29T04:41:06.063Z,23.65
2022-10-29T04:43:07.524Z,26.65
2022-10-29T04:45:09.434Z,35.38
2022-10-29T04:47:10.929Z,30.52
2022-10-29T04:49:12.559Z,26.58
2022-10-29T04:51:22.040Z,23.83
2022-10-29T04:53:23.715Z,25.15
2022-10-29T04:55:25.644Z,29.13
2022-10-29T04:57:27.097Z,28.92
2022-10-29T04:59:28.560Z,24.67
2022-10-29T05:01:30.409Z,36.22
2022-10-29T05:03:32.583Z,33.65
2022-10-29T05:05:35.899Z,24.92
2022-10-29T05:07:37.351Z,29.48
2022-10-29T05:09:38.803Z,30.75
2022-10-29T05:11:40.262Z,31.15
2022-10-29T05:13:42.083Z,27.40
2022-10-29T05:15:43.547Z,28.23
2022-10-29T05:17:45.009Z,20.92
2022-10-29T05:19:46.471Z,24.02
2022-10-29T05:21:47.985Z,18.20
2022-10-29T05:23:49.439Z,19.27
2022-10-29T05:25:52.382Z,17.75
2022-10-29T05:28:05.975Z,15.45
2022-10-29T05:30:08.482Z,15.52
2022-10-29T05:32:09.953Z,14.30
2022-10-29T05:34:11.445Z,19.45
2022-10-29T05:36:12.931Z,18.13
2022-10-29T05:38:15.131Z,17.77
2022-10-29T05:40:16.703Z,16.38
2022-10-29T05:42:18.176Z,17.48
2022-10-29T05:44:19.650Z,20.52
2022-10-29T05:46:21.163Z,17.40
2022-10-29T05:48:22.722Z,17.67
2022-10-29T05:50:24.450Z,15.73
2022-10-29T05:52:25.906Z,14.80
2022-10-29T05:54:27.380Z,18.92
2022-10-29T05:56:28.888Z,15.75
2022-10-29T05:58:30.383Z,20.08
2022-10-29T06:00:35.190Z,20.33
2022-10-29T06:02:36.714Z,21.65
2022-10-29T06:04:38.254Z,22.15
2022-10-29T06:06:40.002Z,24.58
2022-10-29T06:08:41.576Z,24.52
2022-10-29T06:10:43.431Z,23.58
2022-10-29T06:12:45.016Z,24.52
2022-10-29T06:14:46.453Z,20.85
2022-10-29T06:16:47.909Z,17.00
2022-10-29T06:18:49.410Z,22.73
2022-10-29T06:20:50.847Z,23.15
2022-10-29T06:22:59.374Z,23.35
2022-10-29T06:25:00.964Z,25.65
2022-10-29T06:27:02.407Z,21.25
2022-10-29T06:29:04.211Z,23.98
2022-10-29T06:31:05.679Z,18.38
2022-10-29T06:33:07.825Z,18.27
2022-10-29T06:35:10.946Z,20.88
2022-10-29T06:37:12.467Z,14.73
2022-10-29T06:39:13.973Z,15.63
2022-10-29T06:41:15.650Z,19.25
2022-10-29T06:43:17.158Z,21.42
2022-10-29T06:45:18.732Z,20.85
2022-10-29T06:47:20.211Z,20.52
2022-10-29T06:49:21.903Z,17.20
2022-10-29T06:53:29.810Z,15.75
2022-10-29T06:55:32.899Z,14.05
2022-10-29T06:57:34.541Z,18.10
2022-10-29T06:59:36.007Z,15.25
2022-10-29T07:01:37.480Z,16.90
2022-10-29T07:03:39.010Z,19.98
2022-10-29T07:05:40.690Z,13.77
2022-10-29T07:07:42.225Z,16.63
2022-10-29T07:09:43.843Z,13.30
2022-10-29T07:11:45.303Z,12.40
2022-10-29T07:13:46.871Z,14.35
2022-10-29T07:15:48.671Z,17.95
2022-10-29T07:18:00.288Z,13.77
2022-10-29T07:20:02.448Z,10.90
2022-10-29T07:22:04.005Z,10.60
2022-10-29T07:24:05.811Z,12.00
2022-10-29T07:26:07.332Z,9.00
2022-10-29T07:28:16.196Z,11.57
2022-10-29T07:30:18.015Z,11.45
2022-10-29T07:32:19.686Z,12.48
2022-10-29T07:34:21.139Z,9.60
2022-10-29T07:36:23.538Z,9.05
2022-10-29T07:38:25.985Z,14.52
2022-10-29T07:40:27.857Z,15.95
2022-10-29T07:42:29.370Z,10.32
2022-10-29T07:44:30.819Z,10.02
2022-10-29T07:46:32.285Z,13.48
2022-10-29T07:48:33.928Z,14.18
2022-10-29T07:50:36.888Z,13.70
2022-10-29T07:52:39.867Z,15.55
2022-10-29T07:54:41.334Z,11.77
2022-10-29T07:56:46.668Z,15.77
2022-10-29T07:58:49.330Z,14.45
2022-10-29T08:00:51.084Z,16.92
2022-10-29T08:02:54.859Z,14.20
2022-10-29T08:04:56.340Z,12.13
2022-10-29T08:06:57.792Z,19.60
2022-10-29T08:08:59.351Z,23.92
2022-10-29T08:11:01.771Z,14.05
2022-10-29T08:13:05.926Z,14.55
2022-10-29T08:15:08.303Z,12.10
2022-10-29T08:17:09.800Z,11.35
2022-10-29T08:19:11.290Z,11.32
2022-10-29T08:21:12.825Z,10.50
2022-10-29T08:23:14.876Z,12.00
2022-10-29T08:25:17.855Z,18.33
2022-10-29T08:27:19.331Z,12.60
2022-10-29T08:29:20.776Z,13.20
2022-10-29T08:31:22.336Z,13.32
2022-10-29T08:33:24.165Z,12.43
2022-10-29T08:35:25.961Z,9.90
2022-10-29T08:37:27.976Z,12.65
2022-10-29T08:39:29.427Z,11.40
2022-10-29T08:41:52.483Z,14.95
2022-10-29T08:44:06.035Z,8.85
2022-10-29T08:46:42.465Z,10.02
2022-10-29T08:48:51.096Z,16.35
2022-10-29T08:51:10.790Z,20.40
2022-10-29T08:55:37.170Z,9.88
2022-10-29T08:57:43.833Z,12.70
2022-10-29T09:02:17.035Z,14.13
2022-10-29T09:04:25.387Z,13.63
2022-10-29T09:06:56.156Z,8.18
2022-10-29T09:09:12.899Z,12.00
2022-10-29T09:11:23.577Z,14.38
2022-10-29T09:13:43.989Z,9.00
2022-10-29T09:16:11.887Z,12.40
2022-10-29T09:18:39.016Z,12.57
2022-10-29T09:21:07.737Z,9.95
2022-10-29T09:23:42.212Z,9.85
2022-10-29T09:25:53.711Z,11.70
2022-10-29T09:28:01.105Z,13.13
2022-10-29T09:30:09.591Z,10.35
2022-10-29T09:32:29.867Z,13.40
2022-10-29T09:34:47.844Z,13.98
2022-10-29T09:36:49.385Z,14.88
2022-10-29T09:39:14.203Z,11.77
2022-10-29T09:41:16.312Z,12.40
2022-10-29T09:43:23.919Z,10.02
2022-10-29T09:45:39.959Z,11.68
2022-10-29T09:47:47.604Z,9.10
2022-10-29T09:50:05.398Z,10.02
2022-10-29T09:52:30.755Z,13.30
2022-10-29T09:54:32.955Z,11.68
2022-10-29T09:56:34.651Z,9.18
2022-10-29T09:58:40.125Z,14.57
2022-10-29T10:00:41.819Z,10.02
2022-10-29T10:02:48.576Z,11.38
2022-10-29T10:04:53.224Z,8.50
2022-10-29T10:07:22.526Z,11.50
2022-10-29T10:09:23.971Z,14.52
2022-10-29T10:11:37.834Z,9.55
2022-10-29T10:13:53.040Z,12.25
2022-10-29T10:15:59.947Z,16.25
2022-10-29T10:18:16.390Z,14.07
2022-10-29T10:20:33.416Z,12.07
2022-10-29T10:22:47.285Z,13.30
2022-10-29T10:24:48.815Z,10.43
2022-10-29T10:26:50.299Z,12.85
2022-10-29T10:29:03.853Z,24.48
2022-10-29T10:31:12.314Z,13.07
2022-10-29T10:33:24.740Z,11.20
2022-10-29T10:35:29.451Z,12.73
2022-10-29T10:37:32.910Z,9.73
2022-10-29T10:39:45.747Z,12.05
2022-10-29T10:41:49.960Z,15.13
2022-10-29T10:43:51.704Z,15.95
2022-10-29T10:46:05.188Z,12.52
2022-10-29T10:48:11.206Z,8.63
2022-10-29T10:50:25.005Z,9.73
2022-10-29T10:52:30.767Z,12.85
2022-10-29T10:54:41.950Z,13.85
2022-10-29T10:56:58.751Z,11.57
2022-10-29T10:59:11.085Z,9.65
2022-10-29T11:01:18.991Z,10.02
2022-10-29T11:03:27.789Z,12.55
2022-10-29T11:05:34.137Z,7.45
2022-10-29T11:07:39.012Z,10.02
2022-10-29T11:09:45.239Z,8.65
2022-10-29T11:12:06.124Z,12.57
2022-10-29T11:14:15.830Z,16.92
2022-10-29T11:18:38.764Z,14.95
2022-10-29T11:20:47.440Z,13.77
2022-10-29T11:23:06.228Z,25.48
2022-10-29T11:25:16.686Z,48.00
2022-10-29T11:27:22.279Z,13.93
2022-10-29T11:29:48.981Z,12.32
2022-10-29T11:32:06.238Z,12.07
2022-10-29T11:34:27.091Z,13.57
2022-10-29T11:36:34.568Z,9.48
2022-10-29T11:38:53.905Z,7.55
2022-10-29T11:41:20.389Z,11.63
2022-10-29T11:43:22.086Z,17.27
2022-10-29T11:45:38.471Z,10.93
2022-10-29T11:47:53.330Z,14.73
2022-10-29T11:50:35.389Z,11.75
2022-10-29T11:52:59.200Z,11.88
2022-10-29T11:55:41.580Z,16.23
2022-10-29T11:57:54.144Z,13.93
2022-10-29T12:00:01.748Z,10.20
2022-10-29T12:02:24.350Z,10.90
2022-10-29T12:04:47.479Z,10.00
2022-10-29T12:07:21.900Z,9.38
2022-10-29T12:09:54.502Z,11.20
2022-10-29T12:12:03.803Z,8.32
2022-10-29T12:14:22.250Z,11.23
2022-10-29T12:17:05.804Z,11.23
2022-10-29T12:19:32.275Z,10.27
2022-10-29T12:21:49.335Z,8.63
2022-10-29T12:23:59.854Z,13.90
2022-10-29T12:26:04.387Z,13.93
2022-10-29T12:28:33.087Z,10.40
2022-10-29T12:30:43.610Z,14.93
2022-10-29T12:33:33.491Z,10.07
2022-10-29T12:38:09.999Z,11.68
2022-10-29T12:40:30.898Z,10.37
2022-10-29T12:42:32.813Z,12.20
2022-10-29T12:44:44.095Z,24.50
2022-10-29T12:47:02.006Z,19.67
2022-10-29T12:49:12.493Z,13.73
2022-10-29T12:51:51.369Z,13.25
2022-10-29T12:54:12.806Z,9.45
2022-10-29T12:56:16.524Z,14.13
2022-10-29T12:58:43.404Z,11.48
2022-10-29T13:00:47.855Z,14.38
2022-10-29T13:02:52.090Z,11.73
2022-10-29T13:05:06.076Z,9.80
2022-10-29T13:09:29.221Z,13.07
2022-10-29T13:11:51.474Z,15.63
2022-10-29T13:13:56.427Z,14.35
2022-10-29T13:16:05.879Z,14.15
2022-10-29T13:18:24.299Z,12.45
2022-10-29T13:20:33.106Z,12.70
2022-10-29T13:25:27.439Z,12.60
2022-10-29T13:27:34.288Z,13.70
2022-10-29T13:30:09.694Z,15.18
2022-10-29T13:32:34.670Z,19.60
2022-10-29T13:34:54.871Z,13.10
2022-10-29T13:37:36.121Z,15.82
2022-10-29T13:39:37.603Z,22.02
2022-10-29T13:41:42.349Z,17.73
2022-10-29T13:44:05.376Z,15.68
2022-10-29T13:46:25.881Z,18.15
2022-10-29T13:48:36.923Z,26.48
2022-10-29T13:50:40.127Z,19.00
2022-10-29T13:52:42.022Z,20.88
2022-10-29T13:54:51.238Z,22.00
2022-10-29T13:57:02.846Z,15.05
2022-10-29T13:59:09.704Z,29.45
2022-10-29T14:01:17.306Z,24.48
2022-10-29T14:03:55.940Z,16.75
2022-10-29T14:06:23.285Z,25.05
2022-10-29T14:08:57.244Z,15.82
2022-10-29T14:10:59.605Z,14.07
2022-10-29T14:13:12.342Z,20.88
2022-10-29T14:15:15.061Z,23.23
2022-10-29T14:17:18.727Z,51.88
2022-10-29T14:19:21.710Z,29.38
2022-10-29T14:21:26.592Z,27.50
2022-10-29T14:23:29.757Z,34.60
2022-10-29T14:25:35.714Z,30.00
2022-10-29T14:27:37.510Z,29.02
2022-10-29T14:29:39.474Z,43.97
2022-10-29T14:31:41.004Z,36.17
2022-10-29T14:33:44.343Z,41.45
2022-10-29T14:35:46.738Z,57.20
2022-10-29T14:37:49.162Z,45.28
2022-10-29T14:39:59.643Z,36.78
2022-10-29T14:42:02.072Z,20.67
2022-10-29T14:44:03.554Z,23.67
2022-10-29T14:46:35.750Z,17.63
2022-10-29T14:48:38.831Z,19.00
2022-10-29T14:50:47.865Z,23.30
2022-10-29T14:52:58.265Z,22.17
2022-10-29T14:55:08.424Z,16.80
2022-10-29T14:57:16.914Z,23.67
2022-10-29T14:59:26.549Z,17.48
2022-10-29T15:01:30.812Z,14.18
2022-10-29T15:03:34.618Z,18.13
2022-10-29T15:05:38.980Z,21.25
2022-10-29T15:07:40.442Z,24.60
2022-10-29T15:09:43.199Z,30.38
2022-10-29T15:11:58.891Z,35.20
2022-10-29T15:14:02.359Z,43.85
2022-10-29T15:16:08.287Z,55.63
2022-10-29T15:18:21.866Z,74.90
2022-10-29T15:20:29.318Z,74.53
2022-10-29T15:22:34.865Z,44.33
2022-10-29T15:24:36.503Z,47.00
2022-10-29T15:26:45.996Z,53.60
2022-10-29T15:28:51.145Z,42.83
2022-10-29T15:30:54.237Z,40.25
2022-10-29T15:32:59.612Z,31.63
2022-10-29T15:35:01.285Z,31.77
2022-10-29T15:37:18.140Z,34.10
2022-10-29T15:39:26.965Z,28.77
2022-10-29T15:41:37.849Z,28.88
2022-10-29T15:43:49.654Z,45.75
2022-10-29T15:45:57.932Z,80.90
2022-10-29T15:48:30.532Z,103.53
2022-10-29T15:50:43.007Z,80.28
2022-10-29T15:52:48.450Z,66.50
2022-10-29T15:54:50.178Z,70.72
2022-10-29T15:56:52.197Z,82.82
2022-10-29T15:58:53.718Z,115.00
2022-10-29T16:00:55.555Z,124.40
2022-10-29T16:03:12.098Z,126.38
2022-10-29T16:05:14.157Z,114.93
2022-10-29T16:07:16.727Z,102.88
2022-10-29T16:09:20.229Z,67.53
2022-10-29T16:11:22.316Z,66.32
2022-10-29T16:13:25.691Z,69.88
2022-10-29T16:17:33.540Z,99.63
2022-10-29T16:19:34.976Z,84.28
2022-10-29T16:21:36.767Z,60.20
2022-10-29T16:23:38.607Z,50.05
2022-10-29T16:25:40.875Z,74.85
2022-10-29T16:27:43.963Z,151.32
2022-10-29T16:29:49.674Z,131.52
2022-10-29T16:31:51.219Z,135.40
2022-10-29T16:33:55.172Z,270.73
2022-10-29T16:35:56.688Z,311.63
2022-10-29T16:37:58.391Z,279.15
2022-10-29T16:39:59.851Z,229.07
2022-10-29T16:42:01.371Z,156.35
2022-10-29T16:44:02.852Z,181.43
2022-10-29T16:46:05.643Z,126.82
2022-10-29T16:48:07.294Z,80.75
2022-10-29T16:50:14.346Z,95.40
2022-10-29T16:52:19.067Z,86.63
2022-10-29T16:54:24.726Z,114.15
2022-10-29T16:56:26.190Z,99.72
2022-10-29T16:58:27.672Z,116.90
2022-10-29T17:00:33.148Z,95.85
2022-10-29T17:02:34.624Z,96.68
2022-10-29T17:04:36.164Z,105.30
2022-10-29T17:06:37.932Z,151.65
2022-10-29T17:08:39.439Z,306.65
2022-10-29T17:10:41.420Z,449.25
2022-10-29T17:12:42.872Z,458.83
2022-10-29T17:14:44.394Z,76.25
2022-10-29T17:16:46.171Z,129.00
2022-10-29T17:18:50.766Z,139.45
2022-10-29T17:20:59.992Z,118.93
2022-10-29T17:23:01.454Z,109.28
2022-10-29T17:25:02.937Z,114.57
2022-10-29T17:27:04.483Z,87.68
2022-10-29T17:29:06.010Z,67.15
2022-10-29T17:31:09.538Z,96.18
2022-10-29T17:33:12.970Z,151.52
2022-10-29T17:35:14.496Z,154.68
2022-10-29T17:37:16.026Z,197.68
2022-10-29T17:39:17.489Z,157.75
2022-10-29T17:41:19.101Z,88.78
2022-10-29T17:43:20.572Z,86.80
2022-10-29T17:45:23.693Z,89.85
2022-10-29T17:47:25.167Z,55.85
2022-10-29T17:49:26.894Z,85.25
2022-10-29T17:51:28.845Z,140.85
2022-10-29T17:53:31.470Z,72.03
2022-10-29T17:55:32.976Z,94.15
2022-10-29T17:57:34.439Z,129.30
2022-10-29T17:59:35.898Z,147.27
2022-10-29T18:01:37.499Z,116.75
2022-10-29T18:03:39.182Z,55.42
2022-10-29T18:05:40.927Z,62.13
2022-10-29T18:07:42.370Z,123.78
2022-10-29T18:09:43.831Z,106.43
2022-10-29T18:11:45.307Z,78.35
2022-10-29T18:13:48.291Z,93.75
2022-10-29T18:15:49.762Z,81.38
2022-10-29T18:19:57.802Z,63.38
2022-10-29T18:21:59.279Z,100.35
2022-10-29T18:24:00.896Z,96.70
2022-10-29T18:26:05.068Z,69.55
2022-10-29T18:28:06.668Z,69.85
2022-10-29T18:30:08.860Z,63.95
2022-10-29T18:32:10.286Z,83.07
2022-10-29T18:34:14.740Z,69.22
2022-10-29T18:36:16.363Z,91.95
2022-10-29T18:38:17.867Z,92.32
2022-10-29T18:40:19.321Z,93.93
2022-10-29T18:42:20.785Z,97.88
2022-10-29T18:44:22.302Z,111.22
2022-10-29T18:46:23.978Z,73.82
2022-10-29T18:48:27.083Z,56.75
2022-10-29T18:50:28.659Z,57.53
2022-10-29T18:52:30.260Z,80.53
2022-10-29T18:54:31.881Z,80.15
2022-10-29T18:56:33.455Z,65.13
2022-10-29T18:58:35.033Z,72.22
2022-10-29T19:00:36.572Z,68.40
2022-10-29T19:02:39.265Z,64.20
2022-10-29T19:04:40.791Z,65.40
2022-10-29T19:06:42.872Z,63.10
2022-10-29T19:08:44.402Z,62.30
2022-10-29T19:10:45.887Z,62.17
2022-10-29T19:12:47.332Z,71.82
2022-10-29T19:14:48.855Z,78.80
2022-10-29T19:16:50.410Z,83.68
2022-10-29T19:18:57.385Z,83.90
2022-10-29T19:21:06.958Z,71.28
2022-10-29T19:23:08.448Z,57.47
2022-10-29T19:25:09.916Z,62.17
2022-10-29T19:27:11.372Z,48.60
2022-10-29T19:29:13.727Z,48.00
2022-10-29T19:31:17.838Z,52.05
2022-10-29T19:33:19.294Z,65.22
2022-10-29T19:35:20.805Z,82.65
2022-10-29T19:37:22.286Z,62.13
2022-10-29T19:39:23.968Z,53.20
2022-10-29T19:41:26.347Z,46.30
2022-10-29T19:43:30.929Z,53.35
2022-10-29T19:45:32.399Z,55.65
2022-10-29T19:47:34.556Z,51.58
2022-10-29T19:49:36.020Z,65.40
2022-10-29T19:51:37.480Z,53.47
2022-10-29T19:53:39.139Z,56.67
2022-10-29T19:55:41.246Z,65.68
2022-10-29T19:57:42.691Z,57.97
2022-10-29T19:59:44.139Z,57.45
2022-10-29T20:01:48.372Z,64.47
2022-10-29T20:03:50.092Z,61.97
2022-10-29T20:05:55.134Z,63.65
2022-10-29T20:07:56.972Z,67.15
2022-10-29T20:09:58.678Z,63.05
2022-10-29T20:12:00.117Z,62.10
2022-10-29T20:14:01.883Z,55.88
2022-10-29T20:16:11.741Z,60.53
2022-10-29T20:20:17.307Z,51.00
2022-10-29T20:22:18.899Z,82.40
2022-10-29T20:24:20.946Z,95.25
2022-10-29T20:26:22.896Z,66.03
2022-10-29T20:28:24.648Z,55.13
2022-10-29T20:30:26.114Z,59.10
2022-10-29T20:32:27.546Z,52.08
2022-10-29T20:34:29.032Z,58.25
2022-10-29T20:36:32.387Z,68.32
2022-10-29T20:38:34.183Z,54.72
2022-10-29T20:40:35.820Z,64.10
2022-10-29T20:42:37.322Z,49.88
2022-10-29T20:44:38.751Z,50.42
2022-10-29T20:46:43.411Z,48.33
2022-10-29T20:48:45.046Z,52.40
2022-10-29T20:50:52.708Z,63.25
2022-10-29T20:52:54.201Z,51.35
2022-10-29T20:54:55.715Z,69.32
2022-10-29T20:56:57.199Z,61.40
2022-10-29T20:58:58.697Z,56.72
2022-10-29T21:01:14.884Z,51.15
2022-10-29T21:03:17.674Z,60.13
2022-10-29T21:05:19.115Z,57.47
2022-10-29T21:07:20.577Z,54.42
2022-10-29T21:09:22.857Z,51.22
2022-10-29T21:11:24.612Z,54.10
2022-10-29T21:13:26.195Z,52.25
2022-10-29T21:15:27.817Z,62.85
2022-10-29T21:17:29.278Z,90.10
2022-10-29T21:19:30.787Z,90.68
2022-10-29T21:21:33.033Z,72.93
2022-10-29T21:23:37.148Z,68.50
2022-10-29T21:25:38.799Z,71.78
2022-10-29T21:27:40.227Z,73.82
2022-10-29T21:29:41.686Z,68.20
2022-10-29T21:31:43.145Z,55.17
2022-10-29T21:33:44.754Z,61.70
2022-10-29T21:35:54.383Z,59.10
2022-10-29T21:37:56.230Z,64.85
2022-10-29T21:40:00.233Z,52.40
2022-10-29T21:42:05.000Z,61.85
2022-10-29T21:44:06.508Z,52.72
2022-10-29T21:46:08.174Z,53.10
2022-10-29T21:48:10.212Z,52.85
2022-10-29T21:50:11.921Z,51.55
2022-10-29T21:52:13.388Z,54.53
2022-10-29T21:54:14.850Z,61.88
2022-10-29T21:56:16.376Z,62.47
2022-10-29T21:58:17.939Z,54.63
2022-10-29T22:00:19.653Z,58.40
2022-10-29T22:02:21.277Z,58.15
2022-10-29T22:04:22.817Z,55.88
2022-10-29T22:06:25.858Z,63.58
2022-10-29T22:08:27.553Z,58.40
2022-10-29T22:10:29.182Z,63.80
2022-10-29T22:12:31.021Z,59.53
2022-10-29T22:14:32.504Z,64.88
2022-10-29T22:16:34.003Z,67.78
2022-10-29T22:18:36.628Z,64.65
2022-10-29T22:20:38.136Z,68.28
2022-10-29T22:22:39.715Z,62.70
2022-10-29T22:24:41.268Z,65.03
2022-10-29T22:26:42.804Z,60.63
2022-10-29T22:28:45.235Z,65.00
2022-10-29T22:30:46.711Z,76.32
2022-10-29T22:32:48.220Z,68.00
2022-10-29T22:34:49.681Z,61.85
2022-10-29T22:36:51.754Z,64.55
2022-10-29T22:38:54.542Z,64.68
2022-10-29T22:40:56.051Z,68.15
2022-10-29T22:42:57.709Z,71.80
2022-10-29T22:44:59.354Z,63.50
2022-10-29T22:47:00.917Z,67.30
2022-10-29T22:49:02.644Z,72.30
2022-10-29T22:51:12.599Z,74.65
2022-10-29T22:55:15.832Z,72.95
2022-10-29T22:57:17.293Z,71.15
2022-10-29T22:59:18.802Z,72.47
2022-10-29T23:01:23.080Z,86.55
2022-10-29T23:03:24.688Z,77.35
2022-10-29T23:05:26.180Z,75.95
2022-10-29T23:07:27.777Z,71.80
2022-10-29T23:09:29.280Z,71.53
2022-10-29T23:11:32.208Z,77.32
2022-10-29T23:13:33.951Z,77.47
2022-10-29T23:15:35.436Z,73.90
2022-10-29T23:17:36.883Z,73.13
2022-10-29T23:19:38.302Z,71.18
2022-10-29T23:21:39.776Z,77.65
2022-10-29T23:23:41.411Z,90.13
2022-10-29T23:25:43.069Z,76.50
2022-10-29T23:27:44.544Z,75.55
2022-10-29T23:29:46.010Z,76.15
2022-10-29T23:31:47.540Z,77.90
2022-10-29T23:33:51.972Z,73.95
2022-10-29T23:35:53.464Z,79.07
2022-10-29T23:37:55.345Z,83.35
2022-10-29T23:39:57.034Z,90.38
2022-10-29T23:41:58.533Z,85.38
2022-10-29T23:43:59.979Z,81.88
2022-10-29T23:46:01.739Z,83.47
2022-10-29T23:48:03.378Z,86.07
2022-10-29T23:50:05.179Z,90.00
2022-10-29T23:52:06.608Z,94.00
2022-10-29T23:54:08.071Z,92.75
2022-10-29T23:56:09.607Z,98.20
2022-10-29T23:58:11.807Z,87.95
